sensor_id;sensor_type;location;lat;lon;timestamp;pressure;altitude;pressure_sealevel;temperature;humidity
59419;BME280;45224;50.904;6.038;2022-10-16T00:00:29;99396.63;;;14.05;94.77
59419;BME280;45224;50.904;6.038;2022-10-16T00:01:59;99390.56;;;14.06;94.97
59419;BME280;45224;50.904;6.038;2022-10-16T00:03:30;99394.88;;;14.06;94.87
59419;BME280;45224;50.904;6.038;2022-10-16T00:05:00;99389.63;;;14.09;94.75
59419;BME280;45224;50.904;6.038;2022-10-16T00:06:31;99387.81;;;14.13;94.42
59419;BME280;45224;50.904;6.038;2022-10-16T00:08:02;99384.41;;;14.11;94.19
59419;BME280;45224;50.904;6.038;2022-10-16T00:09:33;99379.19;;;14.11;94.19
59419;BME280;45224;50.904;6.038;2022-10-16T00:11:15;99379.19;;;14.11;94.15
59419;BME280;45224;50.904;6.038;2022-10-16T00:12:45;99380.84;;;14.15;93.85
59419;BME280;45224;50.904;6.038;2022-10-16T00:14:16;99374.00;;;14.11;93.91
59419;BME280;45224;50.904;6.038;2022-10-16T00:15:46;99375.75;;;14.10;93.62
59419;BME280;45224;50.904;6.038;2022-10-16T00:17:17;99378.44;;;14.05;94.05
59419;BME280;45224;50.904;6.038;2022-10-16T00:18:47;99371.47;;;14.07;93.30
59419;BME280;45224;50.904;6.038;2022-10-16T00:20:17;99376.63;;;14.09;93.75
59419;BME280;45224;50.904;6.038;2022-10-16T00:21:48;99372.38;;;14.06;93.80
59419;BME280;45224;50.904;6.038;2022-10-16T00:23:19;99372.28;;;14.10;93.86
59419;BME280;45224;50.904;6.038;2022-10-16T00:24:50;99378.38;;;14.09;93.76
59419;BME280;45224;50.904;6.038;2022-10-16T00:26:20;99374.09;;;14.06;93.65
59419;BME280;45224;50.904;6.038;2022-10-16T00:27:51;99384.53;;;14.04;93.91
59419;BME280;45224;50.904;6.038;2022-10-16T00:29:21;99366.34;;;14.03;93.72
59419;BME280;45224;50.904;6.038;2022-10-16T00:30:53;99365.69;;;13.93;94.72
59419;BME280;45224;50.904;6.038;2022-10-16T00:32:23;99367.34;;;13.97;94.11
59419;BME280;45224;50.904;6.038;2022-10-16T00:33:54;99365.56;;;13.99;94.04
59419;BME280;45224;50.904;6.038;2022-10-16T00:35:24;99362.22;;;13.94;94.69
59419;BME280;45224;50.904;6.038;2022-10-16T00:36:54;99358.75;;;13.95;94.33
59419;BME280;45224;50.904;6.038;2022-10-16T00:38:25;99360.50;;;13.93;94.15
59419;BME280;45224;50.904;6.038;2022-10-16T00:39:55;99363.06;;;13.95;94.16
59419;BME280;45224;50.904;6.038;2022-10-16T00:41:27;99364.78;;;13.96;94.10
59419;BME280;45224;50.904;6.038;2022-10-16T00:42:58;99370.81;;;13.96;93.37
59419;BME280;45224;50.904;6.038;2022-10-16T00:44:48;99360.44;;;13.96;93.61
59419;BME280;45224;50.904;6.038;2022-10-16T00:46:23;99358.75;;;13.95;93.31
59419;BME280;45224;50.904;6.038;2022-10-16T00:47:55;99365.75;;;13.90;93.71
59419;BME280;45224;50.904;6.038;2022-10-16T00:49:26;99370.13;;;13.88;93.66
59419;BME280;45224;50.904;6.038;2022-10-16T00:50:57;99377.84;;;13.93;93.43
59419;BME280;45224;50.904;6.038;2022-10-16T00:52:28;99372.63;;;13.94;93.10
59419;BME280;45224;50.904;6.038;2022-10-16T00:53:59;99368.28;;;13.93;93.14
59419;BME280;45224;50.904;6.038;2022-10-16T00:55:31;99372.63;;;13.94;92.83
59419;BME280;45224;50.904;6.038;2022-10-16T00:57:04;99370.13;;;13.88;92.92
59419;BME280;45224;50.904;6.038;2022-10-16T00:58:35;99382.19;;;13.92;92.89
59419;BME280;45224;50.904;6.038;2022-10-16T01:00:08;99377.94;;;13.88;92.35
59419;BME280;45224;50.904;6.038;2022-10-16T01:01:39;99388.31;;;13.88;92.70
59419;BME280;45224;50.904;6.038;2022-10-16T01:04:53;99384.34;;;13.70;92.96
59419;BME280;45224;50.904;6.038;2022-10-16T01:06:43;99386.88;;;13.75;93.01
59419;BME280;45224;50.904;6.038;2022-10-16T01:08:22;99385.13;;;13.74;92.04
59419;BME280;45224;50.904;6.038;2022-10-16T01:13:41;99379.06;;;13.75;91.86
59419;BME280;45224;50.904;6.038;2022-10-16T01:15:24;99381.56;;;13.81;91.40
59419;BME280;45224;50.904;6.038;2022-10-16T01:18:43;99380.72;;;13.77;91.17
59419;BME280;45224;50.904;6.038;2022-10-16T01:20:27;99386.81;;;13.78;90.86
59419;BME280;45224;50.904;6.038;2022-10-16T01:22:00;99386.91;;;13.72;90.82
59419;BME280;45224;50.904;6.038;2022-10-16T01:23:51;99393.94;;;13.66;90.42
59419;BME280;45224;50.904;6.038;2022-10-16T01:26:12;99387.06;;;13.64;90.93
59419;BME280;45224;50.904;6.038;2022-10-16T01:27:39;99392.25;;;13.64;91.00
59419;BME280;45224;50.904;6.038;2022-10-16T01:29:28;99395.78;;;13.61;90.85
59419;BME280;45224;50.904;6.038;2022-10-16T01:31:00;99392.38;;;13.56;91.20
59419;BME280;45224;50.904;6.038;2022-10-16T01:32:41;99401.91;;;13.57;91.03
59419;BME280;45224;50.904;6.038;2022-10-16T01:34:16;99402.78;;;13.56;90.69
59419;BME280;45224;50.904;6.038;2022-10-16T01:35:52;99395.88;;;13.55;90.61
59419;BME280;45224;50.904;6.038;2022-10-16T01:37:38;99401.81;;;13.62;90.02
59419;BME280;45224;50.904;6.038;2022-10-16T01:39:11;99389.75;;;13.59;90.30
59419;BME280;45224;50.904;6.038;2022-10-16T01:40:46;99404.50;;;13.57;90.49
59419;BME280;45224;50.904;6.038;2022-10-16T01:42:26;99406.28;;;13.55;90.71
59419;BME280;45224;50.904;6.038;2022-10-16T01:45:34;99414.88;;;13.57;90.61
59419;BME280;45224;50.904;6.038;2022-10-16T01:47:09;99400.91;;;13.63;90.14
59419;BME280;45224;50.904;6.038;2022-10-16T01:48:40;99401.75;;;13.66;89.86
59419;BME280;45224;50.904;6.038;2022-10-16T01:50:12;99408.69;;;13.64;90.14
59419;BME280;45224;50.904;6.038;2022-10-16T01:51:47;99404.34;;;13.66;90.02
59419;BME280;45224;50.904;6.038;2022-10-16T01:53:20;99403.59;;;13.60;90.44
59419;BME280;45224;50.904;6.038;2022-10-16T01:54:52;99410.47;;;13.62;90.39
59419;BME280;45224;50.904;6.038;2022-10-16T01:56:25;99416.63;;;13.58;90.49
59419;BME280;45224;50.904;6.038;2022-10-16T01:57:57;99403.75;;;13.50;91.14
59419;BME280;45224;50.904;6.038;2022-10-16T01:59:31;99400.34;;;13.48;91.32
59419;BME280;45224;50.904;6.038;2022-10-16T02:01:04;99404.59;;;13.51;91.27
59419;BME280;45224;50.904;6.038;2022-10-16T02:02:39;99405.41;;;13.55;91.22
59419;BME280;45224;50.904;6.038;2022-10-16T02:04:25;99413.31;;;13.50;91.58
59419;BME280;45224;50.904;6.038;2022-10-16T02:05:57;99414.09;;;13.54;91.34
59419;BME280;45224;50.904;6.038;2022-10-16T02:07:28;99408.09;;;13.50;91.17
59419;BME280;45224;50.904;6.038;2022-10-16T02:08:58;99410.72;;;13.50;91.13
59419;BME280;45224;50.904;6.038;2022-10-16T02:10:29;99414.28;;;13.43;91.67
59419;BME280;45224;50.904;6.038;2022-10-16T02:12:08;99421.13;;;13.48;91.47
59419;BME280;45224;50.904;6.038;2022-10-16T02:13:51;99415.91;;;13.50;91.45
59419;BME280;45224;50.904;6.038;2022-10-16T02:15:23;99414.19;;;13.47;92.13
59419;BME280;45224;50.904;6.038;2022-10-16T02:16:53;99415.03;;;13.49;91.86
59419;BME280;45224;50.904;6.038;2022-10-16T02:18:25;99406.34;;;13.52;91.44
59419;BME280;45224;50.904;6.038;2022-10-16T02:19:59;99407.22;;;13.51;91.65
59419;BME280;45224;50.904;6.038;2022-10-16T02:21:43;99426.22;;;13.51;91.80
59419;BME280;45224;50.904;6.038;2022-10-16T02:23:21;99415.72;;;13.59;91.37
59419;BME280;45224;50.904;6.038;2022-10-16T02:25:24;99410.66;;;13.51;91.76
59419;BME280;45224;50.904;6.038;2022-10-16T02:26:57;99406.34;;;13.52;91.81
59419;BME280;45224;50.904;6.038;2022-10-16T02:28:45;99403.78;;;13.49;92.00
59419;BME280;45224;50.904;6.038;2022-10-16T02:30:32;99401.25;;;13.46;92.51
59419;BME280;45224;50.904;6.038;2022-10-16T02:32:06;99401.31;;;13.41;92.52
59419;BME280;45224;50.904;6.038;2022-10-16T02:33:40;99400.44;;;13.44;92.48
59419;BME280;45224;50.904;6.038;2022-10-16T02:35:13;99400.53;;;13.38;92.85
59419;BME280;45224;50.904;6.038;2022-10-16T02:36:46;99405.69;;;13.39;93.23
59419;BME280;45224;50.904;6.038;2022-10-16T02:38:20;99412.59;;;13.40;92.91
59419;BME280;45224;50.904;6.038;2022-10-16T02:39:51;99404.75;;;13.42;92.80
59419;BME280;45224;50.904;6.038;2022-10-16T02:41:23;99397.13;;;13.34;93.70
59419;BME280;45224;50.904;6.038;2022-10-16T02:42:55;99404.97;;;13.29;93.55
59419;BME280;45224;50.904;6.038;2022-10-16T02:44:25;99416.13;;;13.36;93.50
59419;BME280;45224;50.904;6.038;2022-10-16T02:45:56;99421.38;;;13.30;94.27
59419;BME280;45224;50.904;6.038;2022-10-16T02:47:26;99419.72;;;13.27;94.27
59419;BME280;45224;50.904;6.038;2022-10-16T02:48:56;99425.72;;;13.32;94.33
59419;BME280;45224;50.904;6.038;2022-10-16T02:50:27;99428.34;;;13.28;94.79
59419;BME280;45224;50.904;6.038;2022-10-16T02:51:57;99412.75;;;13.32;94.35
59419;BME280;45224;50.904;6.038;2022-10-16T02:53:28;99412.69;;;13.36;94.30
59419;BME280;45224;50.904;6.038;2022-10-16T02:54:58;99406.59;;;13.37;93.76
59419;BME280;45224;50.904;6.038;2022-10-16T02:56:29;99401.41;;;13.37;93.91
59419;BME280;45224;50.904;6.038;2022-10-16T02:58:00;99399.72;;;13.36;94.33
59419;BME280;45224;50.904;6.038;2022-10-16T02:59:30;99403.13;;;13.38;94.30
59419;BME280;45224;50.904;6.038;2022-10-16T03:01:01;99391.97;;;13.31;94.73
59419;BME280;45224;50.904;6.038;2022-10-16T03:02:31;99395.38;;;13.35;94.76
59419;BME280;45224;50.904;6.038;2022-10-16T03:04:02;99404.97;;;13.29;95.08
59419;BME280;45224;50.904;6.038;2022-10-16T03:05:32;99406.59;;;13.37;94.83
59419;BME280;45224;50.904;6.038;2022-10-16T03:07:03;99404.00;;;13.37;94.48
59419;BME280;45224;50.904;6.038;2022-10-16T03:08:34;99404.00;;;13.37;95.18
59419;BME280;45224;50.904;6.038;2022-10-16T03:10:05;99406.66;;;13.30;95.66
59419;BME280;45224;50.904;6.038;2022-10-16T03:11:35;99411.84;;;13.33;95.43
59419;BME280;45224;50.904;6.038;2022-10-16T03:13:06;99415.28;;;13.36;95.22
59419;BME280;45224;50.904;6.038;2022-10-16T03:14:36;99408.38;;;13.35;95.41
59419;BME280;45224;50.904;6.038;2022-10-16T03:16:07;99413.53;;;13.36;95.58
59419;BME280;45224;50.904;6.038;2022-10-16T03:17:37;99415.38;;;13.28;96.24
59419;BME280;45224;50.904;6.038;2022-10-16T03:19:07;99418.81;;;13.28;96.04
59419;BME280;45224;50.904;6.038;2022-10-16T03:20:38;99413.59;;;13.30;96.15
59419;BME280;45224;50.904;6.038;2022-10-16T03:22:08;99422.31;;;13.27;96.51
59419;BME280;45224;50.904;6.038;2022-10-16T03:23:39;99412.72;;;13.34;95.32
59419;BME280;45224;50.904;6.038;2022-10-16T03:25:09;99413.66;;;13.27;96.24
59419;BME280;45224;50.904;6.038;2022-10-16T03:26:40;99418.88;;;13.25;96.92
59419;BME280;45224;50.904;6.038;2022-10-16T03:28:10;99417.97;;;13.28;96.50
59419;BME280;45224;50.904;6.038;2022-10-16T03:29:41;99412.78;;;13.28;96.66
59419;BME280;45224;50.904;6.038;2022-10-16T03:31:12;99407.72;;;13.20;97.20
59419;BME280;45224;50.904;6.038;2022-10-16T03:32:43;99410.22;;;13.25;97.18
59419;BME280;45224;50.904;6.038;2022-10-16T03:34:15;99411.06;;;13.27;96.59
59419;BME280;45224;50.904;6.038;2022-10-16T03:35:51;99427.56;;;13.24;97.09
59419;BME280;45224;50.904;6.038;2022-10-16T03:37:23;99439.63;;;13.25;97.05
59419;BME280;45224;50.904;6.038;2022-10-16T03:38:53;99434.41;;;13.28;97.02
59419;BME280;45224;50.904;6.038;2022-10-16T03:40:24;99436.16;;;13.26;97.23
59419;BME280;45224;50.904;6.038;2022-10-16T03:41:54;99446.50;;;13.29;96.90
59419;BME280;45224;50.904;6.038;2022-10-16T03:43:25;99437.91;;;13.26;97.15
59419;BME280;45224;50.904;6.038;2022-10-16T03:44:55;99445.69;;;13.27;97.36
59419;BME280;45224;50.904;6.038;2022-10-16T03:46:26;99436.16;;;13.26;97.30
59419;BME280;45224;50.904;6.038;2022-10-16T03:47:56;99422.41;;;13.21;97.89
59419;BME280;45224;50.904;6.038;2022-10-16T03:49:26;99431.03;;;13.23;97.78
59419;BME280;45224;50.904;6.038;2022-10-16T03:50:57;99438.09;;;13.15;98.29
59419;BME280;45224;50.904;6.038;2022-10-16T03:52:28;99449.28;;;13.19;98.10
59419;BME280;45224;50.904;6.038;2022-10-16T03:53:58;99442.41;;;13.16;98.41
59419;BME280;45224;50.904;6.038;2022-10-16T03:55:30;99444.09;;;13.17;98.57
59419;BME280;45224;50.904;6.038;2022-10-16T03:57:00;99442.34;;;13.18;98.51
59419;BME280;45224;50.904;6.038;2022-10-16T03:58:30;99441.59;;;13.11;98.82
59419;BME280;45224;50.904;6.038;2022-10-16T04:00:01;99448.50;;;13.13;98.71
59419;BME280;45224;50.904;6.038;2022-10-16T04:01:31;99446.75;;;13.14;98.44
59419;BME280;45224;50.904;6.038;2022-10-16T04:03:02;99450.19;;;13.16;98.76
59419;BME280;45224;50.904;6.038;2022-10-16T04:04:32;99451.94;;;13.14;98.81
59419;BME280;45224;50.904;6.038;2022-10-16T04:06:03;99449.34;;;13.14;98.98
59419;BME280;45224;50.904;6.038;2022-10-16T04:07:33;99443.28;;;13.15;99.04
59419;BME280;45224;50.904;6.038;2022-10-16T04:09:04;99451.09;;;13.12;99.21
59419;BME280;45224;50.904;6.038;2022-10-16T04:10:34;99441.50;;;13.17;98.64
59419;BME280;45224;50.904;6.038;2022-10-16T04:12:05;99445.88;;;13.15;98.63
59419;BME280;45224;50.904;6.038;2022-10-16T04:13:35;99445.84;;;13.17;98.73
59419;BME280;45224;50.904;6.038;2022-10-16T04:15:06;99445.00;;;13.16;98.84
59419;BME280;45224;50.904;6.038;2022-10-16T04:16:36;99442.44;;;13.14;99.01
59419;BME280;45224;50.904;6.038;2022-10-16T04:18:07;99446.88;;;13.05;99.97
59419;BME280;45224;50.904;6.038;2022-10-16T04:19:37;99443.38;;;13.09;99.71
59419;BME280;45224;50.904;6.038;2022-10-16T04:21:08;99451.06;;;13.15;98.95
59419;BME280;45224;50.904;6.038;2022-10-16T04:22:38;99449.31;;;13.15;98.71
59419;BME280;45224;50.904;6.038;2022-10-16T04:24:09;99456.28;;;13.13;99.21
59419;BME280;45224;50.904;6.038;2022-10-16T04:25:40;99455.44;;;13.13;99.17
59419;BME280;45224;50.904;6.038;2022-10-16T04:27:11;99454.50;;;13.15;98.58
59419;BME280;45224;50.904;6.038;2022-10-16T04:28:41;99472.69;;;13.14;99.34
59419;BME280;45224;50.904;6.038;2022-10-16T04:30:12;99474.41;;;13.15;99.29
59419;BME280;45224;50.904;6.038;2022-10-16T04:31:43;99477.91;;;13.12;99.31
59419;BME280;45224;50.904;6.038;2022-10-16T04:33:13;99484.81;;;13.13;99.26
59419;BME280;45224;50.904;6.038;2022-10-16T04:34:44;99496.97;;;13.13;99.43
59419;BME280;45224;50.904;6.038;2022-10-16T04:36:14;99498.59;;;13.17;98.89
59419;BME280;45224;50.904;6.038;2022-10-16T04:37:45;99495.28;;;13.09;100.00
59419;BME280;45224;50.904;6.038;2022-10-16T04:39:16;99487.50;;;13.09;99.96
59419;BME280;45224;50.904;6.038;2022-10-16T04:40:46;99480.50;;;13.12;99.36
59419;BME280;45224;50.904;6.038;2022-10-16T04:42:17;99480.53;;;13.11;99.48
59419;BME280;45224;50.904;6.038;2022-10-16T04:43:47;99481.28;;;13.18;98.94
59419;BME280;45224;50.904;6.038;2022-10-16T04:45:18;99488.28;;;13.12;99.58
59419;BME280;45224;50.904;6.038;2022-10-16T04:46:50;99488.25;;;13.15;98.83
59419;BME280;45224;50.904;6.038;2022-10-16T04:48:21;99479.66;;;13.12;99.42
59419;BME280;45224;50.904;6.038;2022-10-16T04:49:51;99484.81;;;13.15;99.08
59419;BME280;45224;50.904;6.038;2022-10-16T04:51:22;99494.41;;;13.10;99.63
59419;BME280;45224;50.904;6.038;2022-10-16T04:52:53;99492.69;;;13.09;99.82
59419;BME280;45224;50.904;6.038;2022-10-16T04:54:23;99495.22;;;13.12;99.74
59419;BME280;45224;50.904;6.038;2022-10-16T04:55:54;99498.69;;;13.11;99.56
59419;BME280;45224;50.904;6.038;2022-10-16T04:57:24;99505.63;;;13.12;99.60
59419;BME280;45224;50.904;6.038;2022-10-16T04:58:55;99502.19;;;13.10;99.88
59419;BME280;45224;50.904;6.038;2022-10-16T05:00:25;99502.22;;;13.07;100.00
59419;BME280;45224;50.904;6.038;2022-10-16T05:01:56;99505.63;;;13.12;99.68
59419;BME280;45224;50.904;6.038;2022-10-16T05:03:26;99513.34;;;13.17;99.68
59419;BME280;45224;50.904;6.038;2022-10-16T05:04:57;99510.75;;;13.15;99.53
59419;BME280;45224;50.904;6.038;2022-10-16T05:06:27;99515.00;;;13.19;99.27
59419;BME280;45224;50.904;6.038;2022-10-16T05:07:58;99511.63;;;13.14;99.85
59419;BME280;45224;50.904;6.038;2022-10-16T05:09:28;99512.50;;;13.16;99.67
59419;BME280;45224;50.904;6.038;2022-10-16T05:10:59;99513.34;;;13.17;99.65
59419;BME280;45224;50.904;6.038;2022-10-16T05:12:30;99504.81;;;13.08;100.00
59419;BME280;45224;50.904;6.038;2022-10-16T05:14:00;99506.50;;;13.09;100.00
59419;BME280;45224;50.904;6.038;2022-10-16T05:15:31;99510.75;;;13.15;99.75
59419;BME280;45224;50.904;6.038;2022-10-16T05:17:02;99517.75;;;13.10;100.00
59419;BME280;45224;50.904;6.038;2022-10-16T05:18:33;99528.09;;;13.14;100.00
59419;BME280;45224;50.904;6.038;2022-10-16T05:20:04;99520.31;;;13.13;100.00
59419;BME280;45224;50.904;6.038;2022-10-16T05:21:34;99538.50;;;13.13;100.00
59419;BME280;45224;50.904;6.038;2022-10-16T05:23:05;99524.59;;;13.14;100.00
59419;BME280;45224;50.904;6.038;2022-10-16T05:24:35;99529.81;;;13.12;100.00
59419;BME280;45224;50.904;6.038;2022-10-16T05:26:06;99536.72;;;13.15;100.00
59419;BME280;45224;50.904;6.038;2022-10-16T05:27:36;99537.63;;;13.11;100.00
59419;BME280;45224;50.904;6.038;2022-10-16T05:29:07;99543.69;;;13.11;100.00
59419;BME280;45224;50.904;6.038;2022-10-16T05:30:37;99543.72;;;13.10;100.00
59419;BME280;45224;50.904;6.038;2022-10-16T05:32:08;99541.06;;;13.14;100.00
59419;BME280;45224;50.904;6.038;2022-10-16T05:33:38;99545.38;;;13.14;100.00
59419;BME280;45224;50.904;6.038;2022-10-16T05:35:09;99535.06;;;13.08;100.00
59419;BME280;45224;50.904;6.038;2022-10-16T05:36:39;99542.00;;;13.09;100.00
59419;BME280;45224;50.904;6.038;2022-10-16T05:38:09;99546.25;;;13.14;100.00
59419;BME280;45224;50.904;6.038;2022-10-16T05:39:40;99549.69;;;13.17;100.00
59419;BME280;45224;50.904;6.038;2022-10-16T05:41:10;99556.56;;;13.18;100.00
59419;BME280;45224;50.904;6.038;2022-10-16T05:42:41;99556.56;;;13.18;100.00
59419;BME280;45224;50.904;6.038;2022-10-16T05:44:11;99549.75;;;13.10;100.00
59419;BME280;45224;50.904;6.038;2022-10-16T05:45:42;99552.34;;;13.12;100.00
59419;BME280;45224;50.904;6.038;2022-10-16T05:47:13;99558.34;;;13.14;100.00
59419;BME280;45224;50.904;6.038;2022-10-16T05:48:44;99561.91;;;13.08;100.00
59419;BME280;45224;50.904;6.038;2022-10-16T05:50:15;99558.47;;;13.05;100.00
59419;BME280;45224;50.904;6.038;2022-10-16T05:51:45;99569.72;;;13.07;100.00
59419;BME280;45224;50.904;6.038;2022-10-16T05:53:16;99567.94;;;13.09;100.00
59419;BME280;45224;50.904;6.038;2022-10-16T05:54:46;99569.72;;;13.07;100.00
59419;BME280;45224;50.904;6.038;2022-10-16T05:56:17;99576.63;;;13.05;100.00
59419;BME280;45224;50.904;6.038;2022-10-16T05:57:47;99574.91;;;13.07;100.00
59419;BME280;45224;50.904;6.038;2022-10-16T05:59:18;99573.97;;;13.11;100.00
59419;BME280;45224;50.904;6.038;2022-10-16T06:00:56;99568.84;;;13.05;100.00
59419;BME280;45224;50.904;6.038;2022-10-16T06:02:27;99576.78;;;12.95;100.00
59419;BME280;45224;50.904;6.038;2022-10-16T06:03:57;99581.81;;;13.05;100.00
59419;BME280;45224;50.904;6.038;2022-10-16T06:05:28;99574.91;;;13.07;100.00
59419;BME280;45224;50.904;6.038;2022-10-16T06:06:59;99576.59;;;13.08;100.00
59419;BME280;45224;50.904;6.038;2022-10-16T06:08:32;99576.59;;;13.08;100.00
59419;BME280;45224;50.904;6.038;2022-10-16T06:10:03;99583.47;;;13.12;100.00
59419;BME280;45224;50.904;6.038;2022-10-16T06:11:34;99582.66;;;13.10;100.00
59419;BME280;45224;50.904;6.038;2022-10-16T06:13:05;99582.66;;;13.08;100.00
59419;BME280;45224;50.904;6.038;2022-10-16T06:14:35;99582.72;;;13.04;100.00
59419;BME280;45224;50.904;6.038;2022-10-16T06:16:06;99595.66;;;13.07;100.00
59419;BME280;45224;50.904;6.038;2022-10-16T06:17:36;99598.25;;;13.08;100.00
59419;BME280;45224;50.904;6.038;2022-10-16T06:19:07;99607.69;;;13.11;100.00
59419;BME280;45224;50.904;6.038;2022-10-16T06:20:38;99611.16;;;13.13;100.00
59419;BME280;45224;50.904;6.038;2022-10-16T06:22:08;99612.06;;;13.09;100.00
59419;BME280;45224;50.904;6.038;2022-10-16T06:23:39;99613.78;;;13.10;100.00
59419;BME280;45224;50.904;6.038;2022-10-16T06:25:10;99617.19;;;13.13;100.00
59419;BME280;45224;50.904;6.038;2022-10-16T06:26:40;99607.75;;;13.08;100.00
59419;BME280;45224;50.904;6.038;2022-10-16T06:28:12;99615.53;;;13.08;100.00
59419;BME280;45224;50.904;6.038;2022-10-16T06:29:43;99614.59;;;13.15;100.00
59419;BME280;45224;50.904;6.038;2022-10-16T06:31:15;99615.50;;;13.11;100.00
59419;BME280;45224;50.904;6.038;2022-10-16T06:32:46;99615.41;;;13.19;100.00
59419;BME280;45224;50.904;6.038;2022-10-16T06:34:16;99623.28;;;13.11;100.00
59419;BME280;45224;50.904;6.038;2022-10-16T06:35:47;99614.63;;;13.12;100.00
59419;BME280;45224;50.904;6.038;2022-10-16T06:37:17;99621.50;;;13.16;100.00
59419;BME280;45224;50.904;6.038;2022-10-16T06:38:48;99621.47;;;13.18;100.00
59419;BME280;45224;50.904;6.038;2022-10-16T06:40:18;99621.53;;;13.14;100.00
59419;BME280;45224;50.904;6.038;2022-10-16T06:41:49;99632.72;;;13.18;100.00
59419;BME280;45224;50.904;6.038;2022-10-16T06:43:19;99625.00;;;13.13;100.00
59419;BME280;45224;50.904;6.038;2022-10-16T06:44:50;99628.41;;;13.15;100.00
59419;BME280;45224;50.904;6.038;2022-10-16T06:46:22;99629.22;;;13.19;100.00
59419;BME280;45224;50.904;6.038;2022-10-16T06:47:53;99635.28;;;13.21;100.00
59419;BME280;45224;50.904;6.038;2022-10-16T06:49:24;99627.53;;;13.18;100.00
59419;BME280;45224;50.904;6.038;2022-10-16T06:51:01;99641.38;;;13.15;100.00
59419;BME280;45224;50.904;6.038;2022-10-16T06:52:32;99631.00;;;13.15;100.00
59419;BME280;45224;50.904;6.038;2022-10-16T06:54:03;99644.81;;;13.19;100.00
59419;BME280;45224;50.904;6.038;2022-10-16T06:55:34;99650.84;;;13.21;100.00
59419;BME280;45224;50.904;6.038;2022-10-16T06:57:04;99648.28;;;13.20;100.00
59419;BME280;45224;50.904;6.038;2022-10-16T06:58:35;99653.50;;;13.17;100.00
59419;BME280;45224;50.904;6.038;2022-10-16T07:00:06;99657.75;;;13.21;100.00
59419;BME280;45224;50.904;6.038;2022-10-16T07:01:36;99655.16;;;13.21;100.00
59419;BME280;45224;50.904;6.038;2022-10-16T07:03:07;99654.31;;;13.20;100.00
59419;BME280;45224;50.904;6.038;2022-10-16T07:04:37;99657.75;;;13.21;100.00
59419;BME280;45224;50.904;6.038;2022-10-16T07:06:09;99655.19;;;13.19;100.00
59419;BME280;45224;50.904;6.038;2022-10-16T07:07:39;99663.78;;;13.26;100.00
59419;BME280;45224;50.904;6.038;2022-10-16T07:09:11;99666.38;;;13.24;100.00
59419;BME280;45224;50.904;6.038;2022-10-16T07:10:41;99664.69;;;13.20;100.00
59419;BME280;45224;50.904;6.038;2022-10-16T07:12:12;99670.72;;;13.22;100.00
59419;BME280;45224;50.904;6.038;2022-10-16T07:13:43;99666.41;;;13.23;100.00
59419;BME280;45224;50.904;6.038;2022-10-16T07:15:14;99669.81;;;13.26;100.00
59419;BME280;45224;50.904;6.038;2022-10-16T07:16:45;99681.97;;;13.24;100.00
59419;BME280;45224;50.904;6.038;2022-10-16T07:18:16;99685.50;;;13.17;100.00
59419;BME280;45224;50.904;6.038;2022-10-16T07:19:46;99673.34;;;13.19;100.00
59419;BME280;45224;50.904;6.038;2022-10-16T07:21:20;99681.88;;;13.30;100.00
59419;BME280;45224;50.904;6.038;2022-10-16T07:22:51;99682.75;;;13.32;100.00
59419;BME280;45224;50.904;6.038;2022-10-16T07:24:22;99687.13;;;13.27;100.00
59419;BME280;45224;50.904;6.038;2022-10-16T07:25:53;99690.63;;;13.23;100.00
59419;BME280;45224;50.904;6.038;2022-10-16T07:27:24;99698.34;;;13.28;100.00
59419;BME280;45224;50.904;6.038;2022-10-16T07:28:55;99702.63;;;13.30;100.00
59419;BME280;45224;50.904;6.038;2022-10-16T07:30:26;99696.53;;;13.38;100.00
59419;BME280;45224;50.904;6.038;2022-10-16T07:31:57;99699.09;;;13.41;100.00
59419;BME280;45224;50.904;6.038;2022-10-16T07:33:28;99702.56;;;13.38;100.00
59419;BME280;45224;50.904;6.038;2022-10-16T07:34:58;99704.25;;;13.44;100.00
59419;BME280;45224;50.904;6.038;2022-10-16T07:36:29;99707.66;;;13.49;100.00
59419;BME280;45224;50.904;6.038;2022-10-16T07:37:59;99719.66;;;13.56;100.00
59419;BME280;45224;50.904;6.038;2022-10-16T07:39:30;99716.19;;;13.57;100.00
59419;BME280;45224;50.904;6.038;2022-10-16T07:41:03;99717.06;;;13.56;100.00
59419;BME280;45224;50.904;6.038;2022-10-16T07:42:33;99716.97;;;13.64;99.52
59419;BME280;45224;50.904;6.038;2022-10-16T07:44:04;99728.09;;;13.74;99.36
59419;BME280;45224;50.904;6.038;2022-10-16T07:45:34;99724.59;;;13.76;98.54
59419;BME280;45224;50.904;6.038;2022-10-16T07:47:05;99719.34;;;13.81;97.84
59419;BME280;45224;50.904;6.038;2022-10-16T07:48:36;99729.63;;;13.87;98.02
59419;BME280;45224;50.904;6.038;2022-10-16T07:50:06;99726.09;;;13.91;97.53
59419;BME280;45224;50.904;6.038;2022-10-16T07:51:37;99732.03;;;13.99;96.85
59419;BME280;45224;50.904;6.038;2022-10-16T07:53:08;99738.81;;;14.10;95.88
59419;BME280;45224;50.904;6.038;2022-10-16T07:54:39;99732.75;;;14.11;95.77
59419;BME280;45224;50.904;6.038;2022-10-16T07:56:10;99731.69;;;14.22;95.08
59419;BME280;45224;50.904;6.038;2022-10-16T07:57:41;99728.91;;;14.33;94.28
59419;BME280;45224;50.904;6.038;2022-10-16T07:59:12;99722.56;;;14.50;94.80
59419;BME280;45224;50.904;6.038;2022-10-16T08:00:42;99743.13;;;14.67;94.11
59419;BME280;45224;50.904;6.038;2022-10-16T08:02:13;99736.63;;;14.91;92.60
59419;BME280;45224;50.904;6.038;2022-10-16T08:03:45;99735.59;;;15.00;89.49
59419;BME280;45224;50.904;6.038;2022-10-16T08:05:15;99739.47;;;15.24;88.71
59419;BME280;45224;50.904;6.038;2022-10-16T08:06:46;99744.19;;;15.47;87.07
59419;BME280;45224;50.904;6.038;2022-10-16T08:08:17;99736.00;;;15.65;85.63
59419;BME280;45224;50.904;6.038;2022-10-16T08:09:49;99736.34;;;15.91;86.71
59419;BME280;45224;50.904;6.038;2022-10-16T08:11:21;99748.81;;;16.15;84.39
59419;BME280;45224;50.904;6.038;2022-10-16T08:12:52;99749.09;;;16.39;86.07
59419;BME280;45224;50.904;6.038;2022-10-16T08:14:22;99753.00;;;16.58;80.09